Aviation Digital Data Service (ADDS)

Output produced by METARs form (1143 UTC 04 August 2015)
found at http://www.aviationweather.gov/adds/metars/
 
KBFD 041119Z AUTO 23004KT 1SM BR OVC002 15/14 A2994 RMK AO2 T01500144 TSNO
KBFD 041100Z AUTO 23003KT 1/4SM FG VV002 15/14 A2994 RMK AO2 T01500144 TSNO
KBFD 041053Z AUTO 22003KT 1/2SM FG OVC001 15/14 A2994 RMK AO2 SLP124 T01500144 TSNO
KBFD 041039Z AUTO 00000KT 1/2SM FG BKN002 OVC011 15/14 A2993 RMK AO2 T01500144 TSNO
KBFD 040953Z AUTO 00000KT 1/4SM FG VV002 14/14 A2992 RMK AO2 SLP116 T01440139 TSNO
KBFD 040924Z AUTO 00000KT 1/4SM FG VV002 14/14 A2991 RMK AO2 T01440139 TSNO
KBFD 040914Z AUTO 00000KT 1/2SM FG VV002 13/12 A2991 RMK AO2 T01280122 TSNO
KBFD 040853Z AUTO 00000KT 1/4SM FG VV001 12/12 A2990 RMK AO2 SLP113 T01220117 53003 TSNO
KBFD 040753Z AUTO 00000KT 1/4SM FG VV001 13/13 A2988 RMK AO2 SLP106 T01330128 TSNO
KBFD 040744Z AUTO 00000KT 1/4SM FG VV001 12/12 A2988 RMK AO2 T01220117 TSNO
KBFD 040729Z AUTO 13004KT 3/4SM BR VV001 13/12 A2988 RMK AO2 T01280122 TSNO
KBFD 040653Z AUTO 00000KT 1/4SM FG VV001 14/13 A2989 RMK AO2 SLP107 T01440133 TSNO
KBFD 040640Z AUTO 00000KT 1/4SM FG VV001 14/13 A2989 RMK AO2 T01440133 TSNO
KBFD 040618Z AUTO 00000KT 1/2SM FG VV001 15/14 A2989 RMK AO2 T01500144 TSNO
KBFD 040608Z AUTO 00000KT 3/4SM BR CLR 15/14 A2989 RMK AO2 T01500139 TSNO
KBFD 040557Z AUTO 00000KT 1 3/4SM BR CLR 16/14 A2989 RMK AO2 T01560144 TSNO
KBFD 040553Z AUTO 00000KT 10SM CLR 16/15 A2989 RMK AO2 RAE10 SLP107 P0002 60005 T01610150 10222 20150 53005 TSNO
KBFD 040453Z AUTO VRB04KT 4SM +RA BR SCT045 SCT060 BKN095 16/14 A2988 RMK AO2 RAB05E18B50 SLP106 P0003 T01610144 402560150 TSNO
KBFD 040353Z AUTO 00000KT 10SM SCT044 OVC100 16/14 A2987 RMK AO2 SLP101 T01610139 TSNO
KBFD 040253Z AUTO 00000KT 10SM CLR 16/14 A2988 RMK AO2 SLP104 T01610144 50006 TSNO
KBFD 040153Z AUTO 20003KT 10SM CLR 19/13 A2988 RMK AO2 SLP103 T01890133 TSNO
KBFD 040053Z AUTO 00000KT 10SM BKN060 OVC075 21/15 A2986 RMK AO2 SLP098 T02110150 TSNO
KBFD 032353Z AUTO 23003KT 10SM CLR 22/14 A2985 RMK AO2 SLP095 60000 T02220139 10256 20222 53004 TSNO
KBFD 032253Z AUTO 29007KT 10SM SCT055 BKN070 23/14 A2985 RMK AO2 SLP091 T02330139 TSNO
KBFD 032153Z AUTO VRB04KT 10SM FEW085 24/13 A2984 RMK AO2 SLP088 T02390133 TSNO
KBFD 032053Z AUTO 28009KT 10SM FEW050 SCT065 24/14 A2984 RMK AO2 RAB33E43 SLP088 P0000 60000 T02440139 58005 TSNO
KBFD 031953Z AUTO 22008KT 190V260 10SM SCT043 BKN055 26/14 A2985 RMK AO2 SLP091 T02560139 TSNO
KBFD 031853Z AUTO 23008KT 10SM FEW048 FEW060 BKN075 23/13 A2986 RMK AO2 SLP093 T02330128 TSNO
KBFD 031753Z AUTO 30011G15KT 10SM BKN042 BKN070 24/12 A2986 RMK AO2 SLP093 T02390122 10244 20172 53002 TSNO
KBFD 031653Z AUTO 28006KT 10SM FEW044 23/13 A2985 RMK AO2 SLP091 T02280128 TSNO
KBFD 031553Z AUTO 29011G19KT 10SM SCT036 23/12 A2985 RMK AO2 SLP092 T02280122 TSNO
KBFD 031453Z AUTO VRB06G16KT 10SM CLR 21/13 A2985 RMK AO2 SLP092 T02110133 53010 TSNO
KBFD 031353Z AUTO 24007KT 190V260 10SM FEW090 20/13 A2984 RMK AO2 SLP087 T02000133 TSNO
KBFD 031253Z AUTO 21007KT 10SM CLR 18/13 A2981 RMK AO2 SLP077 T01830133 TSNO
KBFD 031153Z AUTO 19007KT 10SM CLR 17/14 A2982 RMK AO2 SLP081 T01720139 10206 20172 55010 TSNO
KBFD 031053Z AUTO 19004KT 10SM CLR 17/14 A2982 RMK AO2 SLP080 T01720139 TSNO
KBFD 030953Z AUTO 23003KT 10SM CLR 18/14 A2983 RMK AO2 SLP084 T01830144 TSNO
KBFD 030853Z AUTO VRB05KT 10SM SCT023 BKN035 19/14 A2985 RMK AO2 SLP090 T01940144 53005 TSNO
KBFD 030753Z AUTO 24007KT 10SM CLR 20/14 A2983 RMK AO2 SLP081 T02000144 TSNO
KBFD 030653Z AUTO 23008KT 200V260 10SM CLR 21/14 A2983 RMK AO2 SLP080 T02060144 TSNO
KBFD 030553Z AUTO 21007KT 170V250 10SM CLR 21/15 A2984 RMK AO2 SLP084 T02060150 10239 20206 56013 TSNO
KBFD 030453Z AUTO 22007KT 10SM CLR 21/16 A2985 RMK AO2 SLP088 T02060156 402720100 TSNO
KBFD 030353Z AUTO VRB06KT 10SM CLR 21/16 A2985 RMK AO2 SLP088 T02110156 TSNO
KBFD 030253Z AUTO 21007KT 10SM CLR 22/16 A2988 RMK AO2 SLP100 T02170156 58003 TSNO
KBFD 030153Z AUTO 20005KT 10SM CLR 22/15 A2989 RMK AO2 SLP103 T02220150 TSNO
KBFD 030053Z AUTO 20004KT 10SM CLR 23/14 A2989 RMK AO2 SLP107 T02280139 TSNO
KBFD 022353Z AUTO 19004KT 10SM CLR 24/14 A2989 RMK AO2 SLP105 T02440139 10272 20244 58009 TSNO